APJ461 RJGG-RJCC
Flight info
| Callsign | APJ461 |
|---|---|
| Flight time | 1h 22m |
| Altitude | 37000 |
| Route | KCC KROBE Y13 SIRAO Y139 NAVER |
| Aircraft | A320/M-SDE3FGHIRWY/LB1 |
Departure
| Time | 2026-04-29 02:16 |
|---|---|
| Airport | Chubu Centrair International Airport (RJGG) |
Arrival
| Time | 2026-04-29 03:38 |
|---|---|
| Airport | New Chitose Airport (RJCC) |
| Time | Latitude | Longitude | Altitude | Speed | Heading |
|---|---|---|---|---|---|
| 2026-04-29 01:39 | 34.86360 | 136.81221 | 9 ft | 0 kts | 78° |
| 2026-04-29 02:01 | 34.86357 | 136.81206 | 9 ft | 2 kts | 78° |
| 2026-04-29 02:02 | 34.86354 | 136.81190 | 9 ft | 2 kts | 78° |
| 2026-04-29 02:02 | 34.86351 | 136.81172 | 9 ft | 2 kts | 78° |
| 2026-04-29 02:02 | 34.86348 | 136.81154 | 9 ft | 2 kts | 78° |
| 2026-04-29 02:02 | 34.86345 | 136.81137 | 9 ft | 2 kts | 78° |
| 2026-04-29 02:03 | 34.86343 | 136.81119 | 9 ft | 2 kts | 110° |
| 2026-04-29 02:03 | 34.86353 | 136.81104 | 9 ft | 2 kts | 154° |
| 2026-04-29 02:03 | 34.86360 | 136.81100 | 9 ft | 1 kts | 175° |
| 2026-04-29 02:03 | 34.86364 | 136.81100 | 9 ft | 0 kts | 169° |
| 2026-04-29 02:06 | 34.86360 | 136.81102 | 8 ft | 1 kts | 169° |
| 2026-04-29 02:06 | 34.86342 | 136.81105 | 8 ft | 3 kts | 172° |
| 2026-04-29 02:06 | 34.86309 | 136.81113 | 8 ft | 5 kts | 168° |
| 2026-04-29 02:07 | 34.86271 | 136.81123 | 9 ft | 5 kts | 168° |
| 2026-04-29 02:07 | 34.86224 | 136.81136 | 8 ft | 7 kts | 168° |
| 2026-04-29 02:07 | 34.86165 | 136.81149 | 8 ft | 10 kts | 169° |
| 2026-04-29 02:07 | 34.86098 | 136.81131 | 8 ft | 11 kts | 239° |
| 2026-04-29 02:08 | 34.86079 | 136.81038 | 9 ft | 11 kts | 260° |
| 2026-04-29 02:08 | 34.86063 | 136.80940 | 9 ft | 11 kts | 258° |
| 2026-04-29 02:08 | 34.86052 | 136.80876 | 8 ft | 7 kts | 246° |
| 2026-04-29 02:08 | 34.86005 | 136.80856 | 9 ft | 8 kts | 170° |
| 2026-04-29 02:09 | 34.85933 | 136.80875 | 8 ft | 11 kts | 168° |
| 2026-04-29 02:09 | 34.85849 | 136.80894 | 8 ft | 12 kts | 169° |
| 2026-04-29 02:09 | 34.85757 | 136.80916 | 8 ft | 13 kts | 169° |
| 2026-04-29 02:09 | 34.85661 | 136.80939 | 8 ft | 14 kts | 169° |
| 2026-04-29 02:10 | 34.85558 | 136.80963 | 8 ft | 15 kts | 167° |
| 2026-04-29 02:10 | 34.85452 | 136.80989 | 9 ft | 15 kts | 169° |
| 2026-04-29 02:10 | 34.85341 | 136.81015 | 9 ft | 16 kts | 169° |
| 2026-04-29 02:10 | 34.85229 | 136.81043 | 8 ft | 16 kts | 168° |
| 2026-04-29 02:11 | 34.85112 | 136.81071 | 9 ft | 17 kts | 169° |
| 2026-04-29 02:11 | 34.84996 | 136.81097 | 8 ft | 17 kts | 169° |
| 2026-04-29 02:11 | 34.84874 | 136.81128 | 9 ft | 17 kts | 168° |
| 2026-04-29 02:11 | 34.84753 | 136.81157 | 8 ft | 18 kts | 169° |
| 2026-04-29 02:12 | 34.84628 | 136.81187 | 9 ft | 18 kts | 169° |
| 2026-04-29 02:12 | 34.84514 | 136.81213 | 8 ft | 16 kts | 168° |
| 2026-04-29 02:12 | 34.84407 | 136.81239 | 9 ft | 14 kts | 175° |
| 2026-04-29 02:12 | 34.84352 | 136.81186 | 9 ft | 9 kts | 263° |
| 2026-04-29 02:13 | 34.84341 | 136.81105 | 8 ft | 9 kts | 258° |
| 2026-04-29 02:13 | 34.84330 | 136.81049 | 8 ft | 0 kts | 258° |
| 2026-04-29 02:13 | 34.84330 | 136.81047 | 8 ft | 1 kts | 258° |
| 2026-04-29 02:14 | 34.84325 | 136.81017 | 8 ft | 5 kts | 259° |
| 2026-04-29 02:14 | 34.84316 | 136.80960 | 9 ft | 7 kts | 259° |
| 2026-04-29 02:14 | 34.84328 | 136.80904 | 9 ft | 7 kts | 338° |
| 2026-04-29 02:14 | 34.84340 | 136.80901 | 8 ft | 0 kts | 349° |
| 2026-04-29 02:15 | 34.84372 | 136.80893 | 9 ft | 26 kts | 349° |
| 2026-04-29 02:15 | 34.84800 | 136.80789 | 9 ft | 96 kts | 349° |
| 2026-04-29 02:15 | 34.85654 | 136.80586 | 12 ft | 152 kts | 348° |
| 2026-04-29 02:15 | 34.86751 | 136.80336 | 463 ft | 162 kts | 348° |
| 2026-04-29 02:16 | 34.87828 | 136.80020 | 1200 ft | 161 kts | 341° |
| 2026-04-29 02:16 | 34.88883 | 136.79607 | 1920 ft | 162 kts | 341° |
| 2026-04-29 02:16 | 34.89996 | 136.79169 | 2415 ft | 176 kts | 341° |
| 2026-04-29 02:16 | 34.91221 | 136.78685 | 2884 ft | 194 kts | 340° |
| 2026-04-29 02:17 | 34.92588 | 136.78136 | 3287 ft | 217 kts | 341° |
| 2026-04-29 02:17 | 34.94077 | 136.77548 | 3812 ft | 235 kts | 340° |
| 2026-04-29 02:17 | 34.95691 | 136.76915 | 4390 ft | 249 kts | 340° |
| 2026-04-29 02:17 | 34.97358 | 136.76262 | 5205 ft | 253 kts | 339° |
| 2026-04-29 02:18 | 34.99038 | 136.75604 | 6064 ft | 255 kts | 337° |
| 2026-04-29 02:18 | 35.00730 | 136.74937 | 6891 ft | 257 kts | 336° |
| 2026-04-29 02:18 | 35.02458 | 136.74258 | 7649 ft | 262 kts | 335° |
| 2026-04-29 02:18 | 35.04207 | 136.73563 | 8388 ft | 267 kts | 334° |
| 2026-04-29 02:19 | 35.06080 | 136.73140 | 9039 ft | 289 kts | 355° |
| 2026-04-29 02:19 | 35.08079 | 136.73863 | 9690 ft | 316 kts | 25° |
| 2026-04-29 02:19 | 35.09870 | 136.75487 | 10386 ft | 327 kts | 32° |
| 2026-04-29 02:19 | 35.11691 | 136.77277 | 10788 ft | 343 kts | 33° |
| 2026-04-29 02:20 | 35.13591 | 136.79132 | 11280 ft | 354 kts | 32° |
| 2026-04-29 02:20 | 35.15527 | 136.81003 | 11916 ft | 359 kts | 32° |
| 2026-04-29 02:20 | 35.17513 | 136.82904 | 12543 ft | 364 kts | 31° |
| 2026-04-29 02:20 | 35.19521 | 136.84814 | 13088 ft | 371 kts | 30° |
| 2026-04-29 02:21 | 35.21578 | 136.86771 | 13675 ft | 375 kts | 30° |
| 2026-04-29 02:21 | 35.23654 | 136.88731 | 14263 ft | 380 kts | 30° |
| 2026-04-29 02:21 | 35.25782 | 136.90675 | 14864 ft | 381 kts | 26° |
| 2026-04-29 02:21 | 35.28007 | 136.92364 | 15552 ft | 374 kts | 20° |
| 2026-04-29 02:22 | 35.30320 | 136.93823 | 16219 ft | 371 kts | 17° |
| 2026-04-29 02:22 | 35.32633 | 136.95189 | 16727 ft | 376 kts | 15° |
| 2026-04-29 02:22 | 35.35037 | 136.96596 | 17277 ft | 379 kts | 15° |
| 2026-04-29 02:22 | 35.37413 | 136.97995 | 17753 ft | 382 kts | 16° |
| 2026-04-29 02:23 | 35.39823 | 136.99422 | 18168 ft | 388 kts | 15° |
| 2026-04-29 02:23 | 35.42266 | 137.00876 | 18743 ft | 389 kts | 15° |
| 2026-04-29 02:23 | 35.44706 | 137.02336 | 19266 ft | 392 kts | 16° |
| 2026-04-29 02:23 | 35.47155 | 137.03803 | 19765 ft | 395 kts | 15° |
| 2026-04-29 02:24 | 35.49632 | 137.05292 | 20244 ft | 398 kts | 15° |
| 2026-04-29 02:24 | 35.52152 | 137.06801 | 20668 ft | 404 kts | 16° |
| 2026-04-29 02:24 | 35.54682 | 137.08325 | 21138 ft | 407 kts | 15° |
| 2026-04-29 02:25 | 35.59779 | 137.11391 | 22084 ft | 411 kts | 15° |
| 2026-04-29 02:25 | 35.62376 | 137.12961 | 22523 ft | 415 kts | 15° |
| 2026-04-29 02:25 | 35.64974 | 137.14523 | 22968 ft | 417 kts | 15° |
| 2026-04-29 02:25 | 35.67580 | 137.16089 | 23349 ft | 422 kts | 15° |
| 2026-04-29 02:26 | 35.70230 | 137.17690 | 23821 ft | 424 kts | 15° |
| 2026-04-29 02:26 | 35.72883 | 137.19296 | 24308 ft | 425 kts | 15° |
| 2026-04-29 02:26 | 35.75525 | 137.20895 | 24733 ft | 428 kts | 15° |
| 2026-04-29 02:26 | 35.78217 | 137.22520 | 25152 ft | 430 kts | 15° |
| 2026-04-29 02:27 | 35.80910 | 137.24153 | 25565 ft | 433 kts | 15° |
| 2026-04-29 02:27 | 35.83611 | 137.25789 | 25964 ft | 436 kts | 15° |
| 2026-04-29 02:27 | 35.86347 | 137.27447 | 26369 ft | 438 kts | 15° |
| 2026-04-29 02:27 | 35.89060 | 137.29095 | 26781 ft | 440 kts | 15° |
| 2026-04-29 02:28 | 35.91827 | 137.30778 | 27191 ft | 442 kts | 15° |
| 2026-04-29 02:28 | 35.94584 | 137.32455 | 27572 ft | 444 kts | 15° |
| 2026-04-29 02:28 | 35.97377 | 137.34151 | 27868 ft | 448 kts | 15° |
| 2026-04-29 02:28 | 36.00189 | 137.35864 | 28218 ft | 451 kts | 16° |
| 2026-04-29 02:29 | 36.02976 | 137.37563 | 28554 ft | 453 kts | 15° |
| 2026-04-29 02:29 | 36.05831 | 137.39310 | 28945 ft | 455 kts | 16° |
| 2026-04-29 02:29 | 36.08671 | 137.41043 | 29279 ft | 457 kts | 15° |
| 2026-04-29 02:29 | 36.11523 | 137.42792 | 29728 ft | 456 kts | 15° |
| 2026-04-29 02:30 | 36.14368 | 137.44531 | 30074 ft | 458 kts | 15° |
| 2026-04-29 02:30 | 36.17254 | 137.46298 | 30400 ft | 460 kts | 15° |
| 2026-04-29 02:30 | 36.20114 | 137.48047 | 30720 ft | 462 kts | 15° |
| 2026-04-29 02:30 | 36.23032 | 137.49835 | 31025 ft | 464 kts | 14° |
| 2026-04-29 02:31 | 36.25935 | 137.51610 | 31231 ft | 468 kts | 14° |
| 2026-04-29 02:31 | 36.28859 | 137.53406 | 31601 ft | 468 kts | 14° |
| 2026-04-29 02:31 | 36.31755 | 137.55190 | 31944 ft | 469 kts | 14° |
| 2026-04-29 02:31 | 36.34698 | 137.56999 | 32240 ft | 470 kts | 14° |
| 2026-04-29 02:32 | 36.37643 | 137.58813 | 32534 ft | 471 kts | 14° |
| 2026-04-29 02:32 | 36.40588 | 137.60626 | 32795 ft | 473 kts | 14° |
| 2026-04-29 02:32 | 36.43511 | 137.62422 | 32987 ft | 476 kts | 14° |
| 2026-04-29 02:32 | 36.46507 | 137.64270 | 33277 ft | 477 kts | 13° |
| 2026-04-29 02:33 | 36.49468 | 137.66100 | 33535 ft | 478 kts | 14° |
| 2026-04-29 02:33 | 36.52475 | 137.67960 | 33859 ft | 477 kts | 14° |
| 2026-04-29 02:33 | 36.55428 | 137.69864 | 34100 ft | 483 kts | 17° |
| 2026-04-29 02:33 | 36.58353 | 137.72002 | 34333 ft | 488 kts | 20° |
| 2026-04-29 02:34 | 36.61233 | 137.74216 | 34481 ft | 492 kts | 20° |
| 2026-04-29 02:34 | 36.64154 | 137.76497 | 34636 ft | 495 kts | 20° |
| 2026-04-29 02:34 | 36.67073 | 137.78786 | 34837 ft | 496 kts | 20° |
| 2026-04-29 02:34 | 36.69987 | 137.81067 | 35011 ft | 497 kts | 20° |
| 2026-04-29 02:35 | 36.72916 | 137.83359 | 35255 ft | 497 kts | 20° |
| 2026-04-29 02:35 | 36.75842 | 137.85648 | 35529 ft | 496 kts | 20° |
| 2026-04-29 02:35 | 36.78789 | 137.87953 | 35812 ft | 494 kts | 20° |
| 2026-04-29 02:35 | 36.81680 | 137.90210 | 35994 ft | 494 kts | 19° |
| 2026-04-29 02:36 | 36.84598 | 137.92491 | 36187 ft | 494 kts | 19° |
| 2026-04-29 02:36 | 36.87524 | 137.94775 | 36363 ft | 494 kts | 19° |
| 2026-04-29 02:36 | 36.90443 | 137.97057 | 36489 ft | 495 kts | 19° |
| 2026-04-29 02:36 | 36.93350 | 137.99327 | 36638 ft | 496 kts | 19° |
| 2026-04-29 02:37 | 36.96302 | 138.01639 | 36711 ft | 498 kts | 19° |
| 2026-04-29 02:37 | 37.02182 | 138.06256 | 36932 ft | 500 kts | 19° |
| 2026-04-29 02:37 | 37.05135 | 138.08580 | 37060 ft | 501 kts | 19° |
| 2026-04-29 02:38 | 37.08060 | 138.10889 | 37059 ft | 499 kts | 19° |
| 2026-04-29 02:38 | 37.13987 | 138.15565 | 37061 ft | 499 kts | 18° |
| 2026-04-29 02:39 | 37.19849 | 138.20189 | 37061 ft | 499 kts | 19° |
| 2026-04-29 02:39 | 37.25723 | 138.24840 | 37063 ft | 498 kts | 18° |
| 2026-04-29 02:40 | 37.31605 | 138.29495 | 37063 ft | 501 kts | 18° |
| 2026-04-29 02:40 | 37.37492 | 138.34169 | 37059 ft | 500 kts | 19° |
| 2026-04-29 02:41 | 37.43366 | 138.38846 | 37057 ft | 498 kts | 18° |
| 2026-04-29 02:41 | 37.49177 | 138.43480 | 37056 ft | 498 kts | 18° |
| 2026-04-29 02:42 | 37.55037 | 138.48152 | 37056 ft | 499 kts | 18° |
| 2026-04-29 02:42 | 37.60887 | 138.52837 | 37062 ft | 497 kts | 18° |
| 2026-04-29 02:43 | 37.66708 | 138.57497 | 37060 ft | 498 kts | 18° |
| 2026-04-29 02:43 | 37.72591 | 138.62212 | 37060 ft | 502 kts | 18° |
| 2026-04-29 02:44 | 37.78474 | 138.66954 | 37055 ft | 500 kts | 19° |
| 2026-04-29 02:44 | 37.84347 | 138.71686 | 37064 ft | 501 kts | 18° |
| 2026-04-29 02:45 | 37.90208 | 138.76417 | 37066 ft | 502 kts | 18° |
| 2026-04-29 02:45 | 37.96098 | 138.81181 | 37065 ft | 502 kts | 18° |
| 2026-04-29 02:46 | 38.01971 | 138.85947 | 37068 ft | 502 kts | 18° |
| 2026-04-29 02:46 | 38.07821 | 138.90698 | 37064 ft | 503 kts | 18° |
| 2026-04-29 02:47 | 38.13766 | 138.95532 | 36861 ft | 504 kts | 18° |
| 2026-04-29 02:47 | 38.16724 | 138.97946 | 37014 ft | 503 kts | 18° |
| 2026-04-29 02:47 | 38.19655 | 139.00330 | 37192 ft | 505 kts | 18° |
| 2026-04-29 02:47 | 38.22612 | 139.02740 | 37003 ft | 504 kts | 18° |
| 2026-04-29 02:48 | 38.25583 | 139.05164 | 37091 ft | 507 kts | 18° |
| 2026-04-29 02:48 | 38.31518 | 139.10022 | 37090 ft | 508 kts | 18° |
| 2026-04-29 02:49 | 38.37445 | 139.14879 | 37037 ft | 510 kts | 18° |
| 2026-04-29 02:49 | 38.43406 | 139.19788 | 37065 ft | 507 kts | 18° |
| 2026-04-29 02:50 | 38.49382 | 139.24699 | 37050 ft | 510 kts | 18° |
| 2026-04-29 02:50 | 38.55342 | 139.29607 | 37038 ft | 515 kts | 18° |
| 2026-04-29 02:51 | 38.61333 | 139.34567 | 37031 ft | 513 kts | 18° |
| 2026-04-29 02:51 | 38.67314 | 139.39520 | 37033 ft | 513 kts | 18° |
| 2026-04-29 02:52 | 38.73337 | 139.44516 | 37060 ft | 515 kts | 18° |
| 2026-04-29 02:52 | 38.79353 | 139.49512 | 37044 ft | 518 kts | 18° |
| 2026-04-29 02:53 | 38.85416 | 139.54572 | 37067 ft | 519 kts | 18° |
| 2026-04-29 02:53 | 38.91435 | 139.59602 | 37004 ft | 516 kts | 18° |
| 2026-04-29 02:54 | 38.97419 | 139.64604 | 37080 ft | 515 kts | 17° |
| 2026-04-29 02:54 | 39.03523 | 139.69328 | 37058 ft | 505 kts | 12° |
| 2026-04-29 02:55 | 39.09854 | 139.73050 | 37025 ft | 495 kts | 6° |
| 2026-04-29 02:55 | 39.16227 | 139.76424 | 37014 ft | 493 kts | 5° |
| 2026-04-29 02:56 | 39.22560 | 139.79793 | 37019 ft | 495 kts | 6° |
| 2026-04-29 02:56 | 39.28942 | 139.83225 | 37161 ft | 499 kts | 6° |
| 2026-04-29 02:56 | 39.32117 | 139.84949 | 37051 ft | 496 kts | 6° |
| 2026-04-29 02:57 | 39.35313 | 139.86681 | 37040 ft | 497 kts | 6° |
| 2026-04-29 02:57 | 39.41692 | 139.90140 | 37023 ft | 498 kts | 6° |
| 2026-04-29 02:58 | 39.48062 | 139.93602 | 37023 ft | 497 kts | 5° |
| 2026-04-29 02:58 | 39.54398 | 139.97052 | 37017 ft | 497 kts | 6° |
| 2026-04-29 02:59 | 39.60774 | 140.00529 | 37013 ft | 497 kts | 5° |
| 2026-04-29 02:59 | 39.67168 | 140.04021 | 37015 ft | 500 kts | 6° |
| 2026-04-29 03:00 | 39.73510 | 140.07623 | 37013 ft | 504 kts | 8° |
| 2026-04-29 03:00 | 39.79863 | 140.11537 | 37008 ft | 504 kts | 9° |
| 2026-04-29 03:01 | 39.86205 | 140.15486 | 37010 ft | 504 kts | 8° |
| 2026-04-29 03:01 | 39.92535 | 140.19412 | 37002 ft | 506 kts | 8° |
| 2026-04-29 03:02 | 39.98935 | 140.23381 | 36997 ft | 507 kts | 8° |
| 2026-04-29 03:02 | 40.05265 | 140.27321 | 36997 ft | 506 kts | 8° |
| 2026-04-29 03:03 | 40.11642 | 140.31280 | 36986 ft | 508 kts | 9° |
| 2026-04-29 03:03 | 40.17997 | 140.35254 | 36990 ft | 509 kts | 9° |
| 2026-04-29 03:04 | 40.24397 | 140.39253 | 37010 ft | 512 kts | 9° |
| 2026-04-29 03:04 | 40.30806 | 140.43280 | 36985 ft | 508 kts | 10° |
| 2026-04-29 03:05 | 40.37202 | 140.47302 | 36980 ft | 508 kts | 10° |
| 2026-04-29 03:05 | 40.43559 | 140.51300 | 36970 ft | 508 kts | 11° |
| 2026-04-29 03:06 | 40.50002 | 140.55354 | 36994 ft | 513 kts | 11° |
| 2026-04-29 03:06 | 40.56422 | 140.59425 | 36981 ft | 513 kts | 11° |
| 2026-04-29 03:07 | 40.62821 | 140.63490 | 36994 ft | 505 kts | 11° |
| 2026-04-29 03:07 | 40.69235 | 140.67552 | 36975 ft | 508 kts | 12° |
| 2026-04-29 03:08 | 40.75597 | 140.71372 | 36992 ft | 498 kts | 7° |
| 2026-04-29 03:08 | 40.82054 | 140.74547 | 36996 ft | 495 kts | 6° |
| 2026-04-29 03:09 | 40.88511 | 140.77658 | 36973 ft | 498 kts | 7° |
| 2026-04-29 03:09 | 40.95002 | 140.80853 | 36971 ft | 497 kts | 7° |
| 2026-04-29 03:10 | 41.01517 | 140.84087 | 36983 ft | 497 kts | 8° |
| 2026-04-29 03:10 | 41.08000 | 140.87303 | 36751 ft | 499 kts | 8° |
| 2026-04-29 03:10 | 41.11245 | 140.88924 | 36386 ft | 496 kts | 7° |
| 2026-04-29 03:11 | 41.14480 | 140.90543 | 35879 ft | 491 kts | 7° |
| 2026-04-29 03:11 | 41.17654 | 140.92128 | 35291 ft | 489 kts | 7° |
| 2026-04-29 03:11 | 41.20836 | 140.93712 | 34681 ft | 488 kts | 7° |
| 2026-04-29 03:11 | 41.23983 | 140.95277 | 34187 ft | 484 kts | 7° |
| 2026-04-29 03:12 | 41.27137 | 140.96852 | 33691 ft | 481 kts | 7° |
| 2026-04-29 03:12 | 41.30253 | 140.98415 | 33231 ft | 477 kts | 6° |
| 2026-04-29 03:12 | 41.33352 | 140.99956 | 32830 ft | 473 kts | 6° |
| 2026-04-29 03:12 | 41.36436 | 141.01468 | 32404 ft | 470 kts | 6° |
| 2026-04-29 03:13 | 41.39500 | 141.02965 | 31965 ft | 468 kts | 6° |
| 2026-04-29 03:13 | 41.42525 | 141.04450 | 31518 ft | 466 kts | 6° |
| 2026-04-29 03:13 | 41.45559 | 141.05942 | 31078 ft | 465 kts | 6° |
| 2026-04-29 03:13 | 41.48588 | 141.07434 | 30624 ft | 462 kts | 7° |
| 2026-04-29 03:14 | 41.51563 | 141.08907 | 30174 ft | 460 kts | 7° |
| 2026-04-29 03:14 | 41.54557 | 141.10387 | 29734 ft | 458 kts | 7° |
| 2026-04-29 03:14 | 41.57523 | 141.11847 | 29315 ft | 456 kts | 8° |
| 2026-04-29 03:14 | 41.60494 | 141.13312 | 28883 ft | 454 kts | 8° |
| 2026-04-29 03:15 | 41.63437 | 141.14769 | 28471 ft | 452 kts | 9° |
| 2026-04-29 03:15 | 41.66370 | 141.16226 | 28023 ft | 450 kts | 9° |
| 2026-04-29 03:15 | 41.69295 | 141.17680 | 27560 ft | 447 kts | 11° |
| 2026-04-29 03:15 | 41.72187 | 141.19139 | 27102 ft | 445 kts | 11° |
| 2026-04-29 03:16 | 41.75087 | 141.20607 | 26667 ft | 441 kts | 12° |
| 2026-04-29 03:16 | 41.77929 | 141.22051 | 26270 ft | 435 kts | 12° |
| 2026-04-29 03:16 | 41.80747 | 141.23485 | 25794 ft | 431 kts | 12° |
| 2026-04-29 03:16 | 41.83546 | 141.24904 | 25347 ft | 426 kts | 13° |
| 2026-04-29 03:17 | 41.86278 | 141.26291 | 24951 ft | 420 kts | 13° |
| 2026-04-29 03:17 | 41.89013 | 141.27679 | 24406 ft | 418 kts | 13° |
| 2026-04-29 03:17 | 41.91693 | 141.29040 | 23910 ft | 414 kts | 14° |
| 2026-04-29 03:17 | 41.94352 | 141.30417 | 23442 ft | 410 kts | 16° |
| 2026-04-29 03:18 | 41.96882 | 141.32225 | 22992 ft | 412 kts | 27° |
| 2026-04-29 03:18 | 41.99128 | 141.34608 | 22516 ft | 414 kts | 37° |
| 2026-04-29 03:18 | 42.01199 | 141.37248 | 22108 ft | 409 kts | 39° |
| 2026-04-29 03:18 | 42.03215 | 141.39912 | 21680 ft | 405 kts | 39° |
| 2026-04-29 03:19 | 42.05220 | 141.42551 | 21267 ft | 399 kts | 39° |
| 2026-04-29 03:19 | 42.07204 | 141.45132 | 20862 ft | 395 kts | 38° |
| 2026-04-29 03:19 | 42.09150 | 141.47643 | 20446 ft | 391 kts | 38° |
| 2026-04-29 03:19 | 42.11114 | 141.50165 | 20032 ft | 386 kts | 37° |
| 2026-04-29 03:20 | 42.13142 | 141.52428 | 19633 ft | 377 kts | 30° |
| 2026-04-29 03:20 | 42.15339 | 141.54344 | 19204 ft | 369 kts | 24° |
| 2026-04-29 03:20 | 42.17569 | 141.56024 | 18827 ft | 365 kts | 22° |
| 2026-04-29 03:20 | 42.19784 | 141.57645 | 18434 ft | 361 kts | 21° |
| 2026-04-29 03:21 | 42.21984 | 141.59251 | 18029 ft | 359 kts | 22° |
| 2026-04-29 03:21 | 42.24161 | 141.60852 | 17615 ft | 356 kts | 22° |
| 2026-04-29 03:21 | 42.26328 | 141.62453 | 17211 ft | 354 kts | 22° |
| 2026-04-29 03:21 | 42.28471 | 141.64046 | 16816 ft | 351 kts | 23° |
| 2026-04-29 03:22 | 42.30602 | 141.65637 | 16443 ft | 349 kts | 24° |
| 2026-04-29 03:22 | 42.32711 | 141.67212 | 16018 ft | 346 kts | 24° |
| 2026-04-29 03:22 | 42.34821 | 141.68788 | 15620 ft | 344 kts | 24° |
| 2026-04-29 03:22 | 42.36892 | 141.70337 | 15218 ft | 341 kts | 24° |
| 2026-04-29 03:23 | 42.38957 | 141.71884 | 14836 ft | 338 kts | 24° |
| 2026-04-29 03:23 | 42.41001 | 141.73415 | 14459 ft | 335 kts | 24° |
| 2026-04-29 03:23 | 42.43029 | 141.74936 | 14094 ft | 333 kts | 24° |
| 2026-04-29 03:23 | 42.45041 | 141.76447 | 13708 ft | 330 kts | 24° |
| 2026-04-29 03:24 | 42.47022 | 141.77933 | 13300 ft | 327 kts | 24° |
| 2026-04-29 03:24 | 42.49013 | 141.79428 | 12957 ft | 322 kts | 24° |
| 2026-04-29 03:24 | 42.50929 | 141.80870 | 12685 ft | 315 kts | 25° |
| 2026-04-29 03:24 | 42.52826 | 141.82300 | 12418 ft | 309 kts | 25° |
| 2026-04-29 03:25 | 42.54701 | 141.83713 | 12066 ft | 305 kts | 25° |
| 2026-04-29 03:25 | 42.56559 | 141.85112 | 11609 ft | 305 kts | 25° |
| 2026-04-29 03:25 | 42.58440 | 141.86301 | 11268 ft | 295 kts | 12° |
| 2026-04-29 03:25 | 42.60442 | 141.86671 | 10904 ft | 286 kts | 355° |
| 2026-04-29 03:26 | 42.62413 | 141.86516 | 10473 ft | 283 kts | 352° |
| 2026-04-29 03:26 | 42.64344 | 141.86302 | 10105 ft | 280 kts | 352° |
| 2026-04-29 03:26 | 42.66276 | 141.86092 | 9726 ft | 277 kts | 353° |
| 2026-04-29 03:26 | 42.68196 | 141.85892 | 9391 ft | 274 kts | 353° |
| 2026-04-29 03:27 | 42.70092 | 141.85700 | 9054 ft | 271 kts | 353° |
| 2026-04-29 03:27 | 42.71970 | 141.85515 | 8714 ft | 268 kts | 353° |
| 2026-04-29 03:27 | 42.73820 | 141.85335 | 8381 ft | 265 kts | 353° |
| 2026-04-29 03:27 | 42.75637 | 141.85159 | 8071 ft | 262 kts | 353° |
| 2026-04-29 03:28 | 42.77450 | 141.84982 | 7738 ft | 260 kts | 353° |
| 2026-04-29 03:28 | 42.79227 | 141.84811 | 7416 ft | 258 kts | 354° |
| 2026-04-29 03:28 | 42.81018 | 141.84633 | 7102 ft | 255 kts | 352° |
| 2026-04-29 03:28 | 42.82756 | 141.84309 | 6786 ft | 253 kts | 348° |
| 2026-04-29 03:29 | 42.84483 | 141.83806 | 6452 ft | 252 kts | 345° |
| 2026-04-29 03:29 | 42.86181 | 141.83270 | 6116 ft | 250 kts | 345° |
| 2026-04-29 03:29 | 42.87898 | 141.82724 | 5791 ft | 249 kts | 345° |
| 2026-04-29 03:29 | 42.89574 | 141.82190 | 5467 ft | 247 kts | 345° |
| 2026-04-29 03:30 | 42.91251 | 141.81657 | 5153 ft | 246 kts | 345° |
| 2026-04-29 03:30 | 42.92929 | 141.81126 | 4842 ft | 245 kts | 345° |
| 2026-04-29 03:30 | 42.94591 | 141.80598 | 4527 ft | 244 kts | 345° |
| 2026-04-29 03:30 | 42.96248 | 141.80070 | 4209 ft | 243 kts | 345° |
| 2026-04-29 03:31 | 42.99536 | 141.78992 | 3572 ft | 241 kts | 340° |
| 2026-04-29 03:31 | 43.01014 | 141.77989 | 3426 ft | 230 kts | 324° |
| 2026-04-29 03:31 | 43.02249 | 141.76694 | 3402 ft | 216 kts | 321° |
| 2026-04-29 03:32 | 43.03355 | 141.75354 | 3345 ft | 210 kts | 308° |
| 2026-04-29 03:32 | 43.03809 | 141.73502 | 3247 ft | 214 kts | 266° |
| 2026-04-29 03:32 | 43.03191 | 141.71668 | 3156 ft | 222 kts | 225° |
| 2026-04-29 03:32 | 43.01888 | 141.70491 | 3028 ft | 224 kts | 213° |
| 2026-04-29 03:33 | 43.00556 | 141.69392 | 2871 ft | 222 kts | 215° |
| 2026-04-29 03:33 | 42.99259 | 141.68263 | 2616 ft | 221 kts | 216° |
| 2026-04-29 03:33 | 42.97957 | 141.67102 | 2280 ft | 223 kts | 216° |
| 2026-04-29 03:33 | 42.96571 | 141.66219 | 2006 ft | 223 kts | 191° |
| 2026-04-29 03:34 | 42.95067 | 141.66206 | 2076 ft | 203 kts | 176° |
| 2026-04-29 03:34 | 42.93739 | 141.66472 | 2002 ft | 181 kts | 173° |
| 2026-04-29 03:34 | 42.92564 | 141.66742 | 1955 ft | 161 kts | 173° |
| 2026-04-29 03:34 | 42.91474 | 141.66966 | 1971 ft | 159 kts | 174° |
| 2026-04-29 03:35 | 42.90362 | 141.67172 | 1978 ft | 159 kts | 174° |
| 2026-04-29 03:35 | 42.89263 | 141.67364 | 1983 ft | 159 kts | 175° |
| 2026-04-29 03:35 | 42.88170 | 141.67552 | 1904 ft | 159 kts | 175° |
| 2026-04-29 03:35 | 42.87063 | 141.67743 | 1696 ft | 158 kts | 175° |
| 2026-04-29 03:36 | 42.85982 | 141.67932 | 1508 ft | 155 kts | 174° |
| 2026-04-29 03:36 | 42.84927 | 141.68115 | 1294 ft | 150 kts | 174° |
| 2026-04-29 03:36 | 42.83923 | 141.68289 | 1068 ft | 141 kts | 174° |
| 2026-04-29 03:36 | 42.82944 | 141.68457 | 876 ft | 141 kts | 173° |
| 2026-04-29 03:37 | 42.81979 | 141.68639 | 699 ft | 140 kts | 174° |
| 2026-04-29 03:37 | 42.80996 | 141.68813 | 506 ft | 139 kts | 174° |
| 2026-04-29 03:37 | 42.80032 | 141.68965 | 330 ft | 139 kts | 173° |
| 2026-04-29 03:37 | 42.79082 | 141.69139 | 147 ft | 137 kts | 172° |
| 2026-04-29 03:38 | 42.78166 | 141.69298 | 73 ft | 108 kts | 173° |
| 2026-04-29 03:38 | 42.77707 | 141.69380 | 72 ft | 40 kts | 173° |
| 2026-04-29 03:38 | 42.77438 | 141.69428 | 72 ft | 34 kts | 178° |
| 2026-04-29 03:38 | 42.77242 | 141.69360 | 72 ft | 23 kts | 201° |
| 2026-04-29 03:39 | 42.77130 | 141.69298 | 73 ft | 5 kts | 203° |
| 2026-04-29 03:39 | 42.77091 | 141.69272 | 73 ft | 6 kts | 220° |
| 2026-04-29 03:39 | 42.77073 | 141.69211 | 74 ft | 7 kts | 258° |
| 2026-04-29 03:39 | 42.77063 | 141.69132 | 74 ft | 9 kts | 264° |
| 2026-04-29 03:40 | 42.77055 | 141.69038 | 75 ft | 10 kts | 264° |
| 2026-04-29 03:40 | 42.77068 | 141.68941 | 76 ft | 10 kts | 303° |
| 2026-04-29 03:40 | 42.77132 | 141.68884 | 76 ft | 11 kts | 347° |
| 2026-04-29 03:40 | 42.77219 | 141.68869 | 76 ft | 13 kts | 354° |
| 2026-04-29 03:41 | 42.77314 | 141.68854 | 76 ft | 14 kts | 353° |
| 2026-04-29 03:41 | 42.77416 | 141.68835 | 77 ft | 15 kts | 352° |
| 2026-04-29 03:41 | 42.77521 | 141.68816 | 78 ft | 15 kts | 351° |
| 2026-04-29 03:41 | 42.77629 | 141.68794 | 77 ft | 16 kts | 354° |
| 2026-04-29 03:42 | 42.77745 | 141.68777 | 78 ft | 16 kts | 354° |
| 2026-04-29 03:42 | 42.77856 | 141.68759 | 78 ft | 15 kts | 354° |
| 2026-04-29 03:42 | 42.77961 | 141.68741 | 79 ft | 15 kts | 353° |
| 2026-04-29 03:42 | 42.78066 | 141.68720 | 79 ft | 15 kts | 353° |
| 2026-04-29 03:43 | 42.78182 | 141.68700 | 80 ft | 17 kts | 353° |
| 2026-04-29 03:43 | 42.78304 | 141.68680 | 81 ft | 17 kts | 353° |
| 2026-04-29 03:43 | 42.78396 | 141.68597 | 83 ft | 15 kts | 291° |
| 2026-04-29 03:43 | 42.78448 | 141.68481 | 85 ft | 14 kts | 328° |
| 2026-04-29 03:44 | 42.78543 | 141.68445 | 86 ft | 14 kts | 354° |
| 2026-04-29 03:44 | 42.78639 | 141.68433 | 86 ft | 13 kts | 352° |
| 2026-04-29 03:44 | 42.78730 | 141.68414 | 86 ft | 13 kts | 352° |
| 2026-04-29 03:44 | 42.78821 | 141.68399 | 85 ft | 13 kts | 351° |
| 2026-04-29 03:45 | 42.78905 | 141.68361 | 85 ft | 12 kts | 336° |
| 2026-04-29 03:45 | 42.78980 | 141.68300 | 85 ft | 12 kts | 326° |
| 2026-04-29 03:45 | 42.79045 | 141.68214 | 84 ft | 13 kts | 308° |
| 2026-04-29 03:45 | 42.79082 | 141.68135 | 84 ft | 7 kts | 290° |
| 2026-04-29 03:46 | 42.79071 | 141.68094 | 84 ft | 4 kts | 212° |
| 2026-04-29 03:46 | 42.79043 | 141.68074 | 84 ft | 4 kts | 207° |
| 2026-04-29 03:46 | 42.79017 | 141.68056 | 84 ft | 3 kts | 206° |
| 2026-04-29 03:46 | 42.79004 | 141.68047 | 84 ft | 0 kts | 207° |